Aeroporto :
LOGIN :

Iscrizione | Disclaimer

   EN    FR    IT 

 










Sommario :    VFR   VFR Marginale   IFR   IFR Intensivo   IFR Molto Intensivo
Visibilità : 
Base nubi : 
>= 8 km
>= 3000ft
5 / 8 km
1000 / 3000 ft
1500m / 5 km
500 / 1000 ft
800 / 1500m
200 / 500 ft
< 800m
< 200 ft
Simboli :   Temporali  Nebbia  Neve Forte  Precipitazioni Forti  Vento > 20 kt
SIGMETs :   Varie  Temporali  Ghiacco  Turbolenza  Onda orograficha  Ceneri Vulcaniche







- Altitudine del aeroporto : 42 ft
- Codice IATA : LMO


EGQS - Lossiemouth

ULTIMO METAR :
  • 230150Z 27005KT 9999 -RA OVC018 15/12 Q1012 RMK WHT

METARs OBSOLETI :
  • 230054Z 23009KT 9999 OVC038 15/11 Q1012 RMK BLU
  • 222350Z 24003KT CAVOK 14/10 Q1011 RMK BLU
  • 222250Z 22008KT CAVOK 15/10 Q1011 RMK BLU

TAF TAF EGQS
Valido dal 23 a 00 ore il 23 a 18 ore UTC


222238Z 2300/2318 23014KT 9999 FEW045
PROB30
TEMPO 2300/2306 -RA SCT024
TEMPO 2305/2314 24018G30KT
Nessun NOTAM noto per questo aeroporto.



MetMap, La meteo Aeronautica in un colpo d'occhio ! - Copyright ORBIFLY Dicembre 2007 - Disclaimer

ORBIFLY MET'MAP TEAM :

Programmazione e sviluppo : Alexandra Zaïnal
Concezione e sviluppo : Baudouin d'Aumeries
Co-Programmazione e sviluppo : Marc-Olivier Méhu
Supporto tecnico e logistico : Manuel Goepfert
Aiuto per la traduzione : Arnaldo La Scala

Contatto : metmap@orbifly.com




FONTI E CREDITI :

   NOAA